Thunder radar more information blitzortung!


Radar de pluja more information rain snow radar


Visita la nostra xarxa de llocs de meteo:

Template documentation
and downloads

And another site



No particular awareness of the weather is required.    There are no Weather-warnings

Pagina Historial Weather Underground text

Diari Resum Agost 23, 2017 Unitats:  Imperial    Mètric   Tant
« Previous Dia
SegĂźent Dia »
Diari Setmana Mensual Anual Personalitzada
  Maxima: Minima: Media:
Temperatura: 93.6 °F 65.7 °F 81.1 °F
Punt de rosada: 67.5 °F 52.2 °F 60.4 °F
Humitat: 87 % 27 % 53 %
Wind Speed: 12.7 mph 0 mph 4.2 mph
RĂ fegues de vent: 12.7 mph - -
Vent:- - SSW
Pression baro: 30 in 29.9 in -
Precipitacions: 0 in    
Historical Graphs
 
 
Dades de taula per Agost 23, 2017
Temps Temperatura Punt de rosada Pression baro Vent Wind Speed RĂ fegues de vent Humitat Rainfall Rate (Hourly)
00:02 72.7 °F 63.9 °F 30 in West 2.3 mph 2.3 mph 74 % 0 in
00:05 68.4 °F 63 °F 30 in West 1 mph 3 mph 83 % 0 in
00:15 68.2 °F 62.4 °F 30 in Calm   2 mph 82 % 0 in
00:25 68.2 °F 62.8 °F 30 in Calm   2 mph 83 % 0 in
00:35 67.8 °F 62.8 °F 30 in Calm   1 mph 84 % 0 in
00:45 67.5 °F 62.4 °F 30 in ENE 2 mph 2 mph 84 % 0 in
00:55 67.3 °F 62.2 °F 30 in Calm   2 mph 84 % 0 in
01:05 67.1 °F 62.1 °F 30 in Calm   1 mph 84 % 0 in
01:10 67.1 °F 62.1 °F 30 in Calm     84 % 0 in
01:20 66.7 °F 61.7 °F 30 in Calm   1 mph 84 % 0 in
01:30 66.6 °F 61.9 °F 30 in Calm   2 mph 85 % 0 in
01:40 66.7 °F 62.1 °F 30 in Calm   1 mph 85 % 0 in
01:50 66.7 °F 62.1 °F 30 in Calm   1 mph 85 % 0 in
02:00 66.7 °F 62.1 °F 30 in Calm     85 % 0 in
02:10 66.6 °F 61.9 °F 30 in NNW 1 mph 1 mph 85 % 0 in
02:20 66.4 °F 61.7 °F 30 in Calm   1 mph 85 % 0 in
02:30 66.4 °F 62.1 °F 30 in Calm   2 mph 86 % 0 in
02:40 66.4 °F 62.1 °F 30 in ESE 1 mph 2 mph 86 % 0 in
02:50 66.2 °F 61.9 °F 30 in Calm   2 mph 86 % 0 in
03:00 66.2 °F 61.9 °F 30 in Calm   2 mph 86 % 0 in
03:10 66 °F 62.1 °F 30 in Calm   1 mph 87 % 0 in
03:20 65.7 °F 61.3 °F 30 in Calm     86 % 0 in
03:30 65.7 °F 61.3 °F 30 in Calm     86 % 0 in
03:40 65.8 °F 61.5 °F 30 in Calm     86 % 0 in
03:50 66 °F 61.7 °F 30 in WSW 1 mph 1 mph 86 % 0 in
04:00 66.7 °F 62.4 °F 30 in Calm   1 mph 86 % 0 in
04:10 67.1 °F 62.1 °F 30 in WSW 1 mph 1 mph 84 % 0 in
04:20 68 °F 62.2 °F 30 in ENE 1 mph 2 mph 82 % 0 in
04:30 69.1 °F 61.9 °F 30 in ENE 1 mph 2 mph 78 % 0 in
04:40 69.6 °F 61.7 °F 30 in ENE 1 mph 3 mph 76 % 0 in
04:50 70.3 °F 61.7 °F 30 in ENE 1 mph 2 mph 74 % 0 in
05:00 71.6 °F 61.3 °F 30 in ENE 2 mph 3 mph 70 % 0 in
05:10 72.3 °F 61.2 °F 30 in ENE 2 mph 3 mph 68 % 0 in
10:13 77.7 °F 64.6 °F 30 in WSW 4.3 mph 4.3 mph 64 % 0 in
10:14 77.7 °F 64.6 °F 30 in SW 4.6 mph 4.6 mph 64 % 0 in
10:19 78.3 °F 65.1 °F 30 in SW 3.8 mph 3.8 mph 64 % 0 in
10:24 78.4 °F 65.1 °F 30 in West 4.6 mph 4.6 mph 64 % 0 in
10:29 78.6 °F 65.5 °F 30 in WSW 2.3 mph 2.3 mph 64 % 0 in
10:34 79 °F 65.8 °F 30 in WSW 3.5 mph 3.5 mph 64 % 0 in
10:39 80.2 °F 66.9 °F 30 in SE 2.3 mph 2.3 mph 64 % 0 in
10:44 79.5 °F 65.5 °F 30 in East 2.3 mph 2.3 mph 62 % 0 in
10:49 79.5 °F 65.8 °F 30 in SW 3.1 mph 3.1 mph 63 % 0 in
10:54 79.9 °F 66.6 °F 30 in SW 3.5 mph 3.5 mph 64 % 0 in
10:59 80.4 °F 66.7 °F 30 in SW 2.3 mph 2.3 mph 63 % 0 in
11:04 81.7 °F 67.5 °F 30 in SW 3.5 mph 3.5 mph 62 % 0 in
11:09 81.3 °F 66.6 °F 30 in NW 2.3 mph 2.3 mph 61 % 0 in
11:14 81.7 °F 66 °F 30 in SSE 2.9 mph 2.9 mph 59 % 0 in
11:19 82.2 °F 66 °F 30 in South 3.6 mph 3.6 mph 58 % 0 in
11:24 83.1 °F 66.7 °F 30 in SE 3.5 mph   58 % 0 in
11:29 83.3 °F 66.9 °F 30 in SW 3.5 mph 3.5 mph 58 % 0 in
11:34 83.5 °F 66.6 °F 30 in ENE 2.3 mph 2.3 mph 57 % 0 in
11:39 84.4 °F 65.8 °F 30 in East 3.1 mph 3.1 mph 54 % 0 in
11:44 84.9 °F 65.8 °F 30 in East 2.3 mph 2.3 mph 53 % 0 in
11:49 85.6 °F 67.1 °F 30 in ESE 3.5 mph 3.5 mph 54 % 0 in
11:54 86 °F 66.9 °F 30 in WSW 2.9 mph 2.9 mph 53 % 0 in
11:59 86 °F 65.1 °F 30 in ENE 3.5 mph 3.5 mph 50 % 0 in
12:04 87.1 °F 66.7 °F 30 in SW 2.9 mph 3.1 mph 51 % 0 in
12:09 86.5 °F 65.1 °F 30 in WSW 4.6 mph 4.6 mph 49 % 0 in
12:14 86.4 °F 64.4 °F 30 in SW 2.6 mph 3.8 mph 48 % 0 in
12:19 87.3 °F 63.3 °F 30 in SSE 2.3 mph 2.3 mph 45 % 0 in
12:24 87.6 °F 63 °F 30 in SSE 4.3 mph 4.3 mph 44 % 0 in
12:29 88.5 °F 64.6 °F 30 in SSW 2.3 mph 2.3 mph 45 % 0 in
12:30 88.5 °F 64.6 °F 30 in West 2.3 mph 2.3 mph 45 % 0 in
12:35 89.6 °F 64 °F 30 in SW 2.3 mph 2.3 mph 43 % 0 in
12:40 88.9 °F 63.5 °F 30 in SSE 4.6 mph 4.6 mph 43 % 0 in
12:45 88.3 °F 62.2 °F 30 in SSW 6.4 mph 6.4 mph 42 % 0 in
12:50 88.2 °F 63.5 °F 30 in ESE 3.6 mph 3.6 mph 44 % 0 in
12:55 87.4 °F 64 °F 30 in WSW 6.2 mph 6.2 mph 46 % 0 in
13:00 86.4 °F 63.1 °F 30 in SE 5.8 mph 5.8 mph 46 % 0 in
13:05 88 °F 64.6 °F 30 in West 3.1 mph 3.1 mph 46 % 0 in
13:10 87.8 °F 64.4 °F 30 in SW 6.4 mph 6.4 mph 46 % 0 in
13:15 88.2 °F 64.8 °F 30 in SSW 5.9 mph 5.9 mph 46 % 0 in
13:20 88.2 °F 64.8 °F 30 in WSW 5.8 mph 5.8 mph 46 % 0 in
13:25 89.2 °F 65.1 °F 30 in SE 3.6 mph 3.6 mph 45 % 0 in
13:30 89.6 °F 65.5 °F 30 in West 3.5 mph 3.5 mph 45 % 0 in
13:35 89.6 °F 64.8 °F 30 in NNE 3.5 mph 3.5 mph 44 % 0 in
13:40 90.1 °F 65.8 °F 30 in SW 6.9 mph 6.9 mph 45 % 0 in
13:45 90.1 °F 64.6 °F 30 in South 3.5 mph 3.5 mph 43 % 0 in
13:50 91.4 °F 65.8 °F 30 in SW 6.9 mph 6.9 mph 43 % 0 in
13:55 90.5 °F 64.9 °F 30 in ESE 5.9 mph 5.9 mph 43 % 0 in
14:00 90.3 °F 65.5 °F 30 in NNW 5.8 mph 5.8 mph 44 % 0 in
14:05 91 °F 66 °F 30 in SSE 6.9 mph 6.9 mph 44 % 0 in
14:10 91.8 °F 65.5 °F 30 in West 2.3 mph 2.4 mph 42 % 0 in
14:15 92.8 °F 66.4 °F 30 in SW 5.8 mph 5.8 mph 42 % 0 in
14:20 92.7 °F 66.2 °F 30 in SW 5.9 mph 5.9 mph 42 % 0 in
14:25 92.1 °F 64.9 °F 30 in WSW 5.8 mph 5.8 mph 41 % 0 in
14:30 92.1 °F 64.2 °F 30 in SSW 8.1 mph 8.1 mph 40 % 0 in
14:35 92.1 °F 64.2 °F 30 in West 8.1 mph 8.1 mph 40 % 0 in
14:40 92.8 °F 64.9 °F 30 in WSW 5.8 mph 5.8 mph 40 % 0 in
14:45 92.5 °F 63.1 °F 30 in SW 9.2 mph 9.2 mph 38 % 0 in
14:50 91.8 °F 62.4 °F 30 in WSW 9.2 mph 9.2 mph 38 % 0 in
14:55 92.1 °F 62.1 °F 30 in WSW 8.1 mph 8.1 mph 37 % 0 in
15:00 92.1 °F 62.1 °F 30 in WSW 6.9 mph 6.9 mph 37 % 0 in
15:05 92.3 °F 61.5 °F 30 in South 8.1 mph 8.1 mph 36 % 0 in
15:10 92.3 °F 61.5 °F 30 in South 2.9 mph 2.9 mph 36 % 0 in
15:15 92.8 °F 62.1 °F 30 in West 6.9 mph 6.9 mph 36 % 0 in
15:20 93 °F 62.1 °F 30 in SSW 6.9 mph 6.9 mph 36 % 0 in
15:25 92.7 °F 61 °F 30 in South 9.2 mph 9.2 mph 35 % 0 in
15:30 92.1 °F 59.7 °F 30 in SW 6.9 mph 6.9 mph 34 % 0 in
15:35 92.5 °F 58.3 °F 30 in SW 8.1 mph 8.1 mph 32 % 0 in
15:40 92.8 °F 57.7 °F 30 in West 6.9 mph 6.9 mph 31 % 0 in
15:45 92.8 °F 56.8 °F 29.9 in SE 6.9 mph 6.9 mph 30 % 0 in
15:50 92.7 °F 55.8 °F 29.9 in West 6.2 mph 6.2 mph 29 % 0 in
15:55 93.6 °F 55.6 °F 29.9 in SSE 6.9 mph 6.9 mph 28 % 0 in
16:00 93 °F 54.1 °F 30 in South 10.4 mph 10.4 mph 27 % 0 in
16:05 93.4 °F 55.4 °F 30 in SW 10.4 mph 10.4 mph 28 % 0 in
16:10 92.8 °F 54 °F 30 in SW 5.8 mph 5.8 mph 27 % 0 in
16:15 92.8 °F 54 °F 30 in SW 8.1 mph 8.1 mph 27 % 0 in
16:20 93 °F 54.1 °F 30 in WSW 10.4 mph 10.4 mph 27 % 0 in
16:25 91.9 °F 53.2 °F 30 in West 10.4 mph 10.4 mph 27 % 0 in
16:30 91.4 °F 52.7 °F 30 in SW 10.4 mph 10.4 mph 27 % 0 in
16:35 92.3 °F 53.4 °F 30 in South 8.1 mph 8.1 mph 27 % 0 in
16:40 91.9 °F 54.1 °F 30 in SSW 6.2 mph 6.2 mph 28 % 0 in
16:45 90.7 °F 52.2 °F 30 in SW 8.1 mph 8.1 mph 27 % 0 in
16:50 89.4 °F 53.1 °F 30 in SSW 8.1 mph 8.1 mph 29 % 0 in
16:55 90.1 °F 53.6 °F 30 in SSW 6.9 mph 6.9 mph 29 % 0 in
17:00 90.9 °F 54.1 °F 30 in SW 8.5 mph 8.5 mph 29 % 0 in
17:05 90.5 °F 54.9 °F 30 in SW 5.8 mph 5.8 mph 30 % 0 in
17:10 89.2 °F 52.9 °F 30 in WSW 9.2 mph 9.2 mph 29 % 0 in
17:15 89.6 °F 53.1 °F 30 in SSW 8.1 mph 8.1 mph 29 % 0 in
17:20 90 °F 53.4 °F 30 in SW 5.6 mph 5.6 mph 29 % 0 in
17:25 89.6 °F 52.2 °F 30 in SSW 12.7 mph 12.7 mph 28 % 0 in
17:30 89.6 °F 53.1 °F 30 in WSW 6.9 mph 6.9 mph 29 % 0 in
17:35 90.1 °F 54.5 °F 30 in SSW 8.1 mph 8.1 mph 30 % 0 in
17:40 89.4 °F 54 °F 30 in South 6.9 mph 6.9 mph 30 % 0 in
17:45 88.5 °F 52.2 °F 30 in WSW 9.2 mph 9.2 mph 29 % 0 in
17:50 88 °F 52.7 °F 30 in SSW 5.8 mph 5.8 mph 30 % 0 in
17:55 87.8 °F 52.5 °F 30 in SSW 9.2 mph 9.2 mph 30 % 0 in
18:00 87.8 °F 53.4 °F 30 in SSW 8.1 mph 8.1 mph 31 % 0 in
18:05 87.8 °F 54.3 °F 30 in SSE 4 mph 4 mph 32 % 0 in
18:10 88.3 °F 54.7 °F 30 in WSW 8.1 mph 8.1 mph 32 % 0 in
18:15 88.5 °F 54 °F 30 in SW 5.8 mph 5.8 mph 31 % 0 in
18:20 87.4 °F 52.2 °F 30 in SW 11.5 mph 11.5 mph 30 % 0 in
18:25 86.4 °F 52.2 °F 30 in SW 8.1 mph 8.1 mph 31 % 0 in
18:30 85.6 °F 52.3 °F 30 in SW 8.1 mph 8.1 mph 32 % 0 in
18:35 85.3 °F 52.2 °F 30 in SSW 6.9 mph 6.9 mph 32 % 0 in
18:40 85.1 °F 52.9 °F 30 in SW 5.9 mph 5.9 mph 33 % 0 in
18:45 84.7 °F 54.1 °F 30 in SSW 4.6 mph 4.6 mph 35 % 0 in
18:50 84.6 °F 54.7 °F 30 in SW 6.9 mph 6.9 mph 36 % 0 in
18:55 84.9 °F 55 °F 30 in SW 4 mph 4 mph 36 % 0 in
19:00 84.7 °F 54.9 °F 30 in SW 6.9 mph 6.9 mph 36 % 0 in
19:05 84 °F 54.9 °F 30 in SSW 5.9 mph 5.9 mph 37 % 0 in
19:10 83.3 °F 55 °F 30 in SW 5.8 mph 5.8 mph 38 % 0 in
19:15 82.9 °F 54.7 °F 30 in SW 2.9 mph 2.9 mph 38 % 0 in
19:20 82.6 °F 55 °F 30 in West 6.9 mph 6.9 mph 39 % 0 in
19:25 82.2 °F 54.9 °F 30 in SW 5.8 mph 5.8 mph 39 % 0 in
19:30 81.7 °F 54.3 °F 30 in SW 4.6 mph 4.6 mph 39 % 0 in
19:35 81.5 °F 54.1 °F 30 in West 1.2 mph   39 % 0 in
19:40 81.3 °F 54 °F 30 in WSW 2.3 mph 2.3 mph 39 % 0 in
19:45 81.3 °F 54 °F 30 in WSW 4.3 mph 4.3 mph 39 % 0 in
19:50 81.1 °F 54.5 °F 30 in SW 5.4 mph 5.4 mph 40 % 0 in
19:55 80.8 °F 54.1 °F 30 in SW 5.8 mph 5.8 mph 40 % 0 in
20:00 80.6 °F 54.7 °F 30 in SSW 4.6 mph 4.6 mph 41 % 0 in
20:05 80.1 °F 55.6 °F 30 in SSW 5.8 mph 5.8 mph 43 % 0 in
20:10 79.9 °F 55.4 °F 30 in SW 2.3 mph 2.3 mph 43 % 0 in
20:15 79.7 °F 55.9 °F 30 in SW 3.8 mph 3.8 mph 44 % 0 in
20:20 79.5 °F 56.3 °F 30 in SW 2.3 mph 2.3 mph 45 % 0 in
20:25 79.2 °F 56.7 °F 30 in SSW 3.5 mph 3.5 mph 46 % 0 in
20:30 79 °F 57 °F 30 in SSW 4.6 mph 4.6 mph 47 % 0 in
20:35 78.8 °F 56.8 °F 30 in SW 3.5 mph 3.5 mph 47 % 0 in
20:40 78.6 °F 57.4 °F 30 in SW 3.5 mph 3.5 mph 48 % 0 in
20:45 78.3 °F 57.6 °F 30 in SW 6.9 mph 6.9 mph 49 % 0 in
20:50 78.1 °F 57.9 °F 30 in SW 6 mph 6 mph 50 % 0 in
20:55 77.9 °F 57.7 °F 30 in WSW 5.8 mph 5.8 mph 50 % 0 in
21:00 77.7 °F 58.1 °F 30 in West 4.6 mph 4.6 mph 51 % 0 in
21:05 77.5 °F 57.9 °F 30 in West 4.6 mph 4.6 mph 51 % 0 in
21:10 77.4 °F 58.5 °F 30 in SW 3.5 mph 3.5 mph 52 % 0 in
21:15 77.4 °F 58.5 °F 30 in SW 4.6 mph 4.6 mph 52 % 0 in
21:20 77 °F 59.2 °F 30 in SW 5.8 mph 5.8 mph 54 % 0 in
21:25 77 °F 59.5 °F 30 in NW 3.5 mph 3.5 mph 55 % 0 in
21:30 76.6 °F 60.3 °F 30 in SW 3.5 mph 3.5 mph 57 % 0 in
21:35 76.6 °F 60.3 °F 30 in WSW 3.5 mph 3.5 mph 57 % 0 in
21:40 76.5 °F 60.6 °F 30 in SW 2.3 mph 2.3 mph 58 % 0 in
21:45 76.3 °F 61 °F 30 in WSW 2.4 mph 2.4 mph 59 % 0 in
21:50 76.3 °F 61 °F 30 in SW 3.5 mph 3.5 mph 59 % 0 in
21:55 76.1 °F 61.2 °F 30 in SW 2.3 mph 2.3 mph 60 % 0 in
22:00 75.9 °F 61 °F 30 in SSW 2.3 mph 2.3 mph 60 % 0 in
22:05 75.6 °F 60.6 °F 30 in WSW 3.8 mph 3.8 mph 60 % 0 in
22:10 75.4 °F 61.5 °F 30 in SW 2.6 mph 2.6 mph 62 % 0 in
22:15 75.4 °F 61.5 °F 30 in South 3.6 mph 3.6 mph 62 % 0 in
22:20 75.2 °F 61.3 °F 30 in SSW 3.8 mph 3.8 mph 62 % 0 in
22:25 75 °F 62.1 °F 30 in West 2.6 mph 2.6 mph 64 % 0 in
22:30 75 °F 62.4 °F 30 in SW 3.3 mph 3.3 mph 65 % 0 in
22:35 74.8 °F 62.2 °F 30 in SW 2.3 mph 2.3 mph 65 % 0 in
22:40 74.7 °F 62.4 °F 30 in SW 2.6 mph 2.6 mph 66 % 0 in
22:42 74.7 °F 62.4 °F 30 in West 2.6 mph 2.6 mph 66 % 0 in
22:47 74.7 °F 62.4 °F 30 in West 1.2 mph 1.4 mph 66 % 0 in
22:50 71.2 °F 63 °F 30 in SW 2 mph 3 mph 75 % 0 in
22:52 74.5 °F 63.1 °F 30 in Calm     68 % 0 in
22:57 74.5 °F 62.4 °F 30 in West 2.3 mph 2.3 mph 66 % 0 in
23:00 71.4 °F 63.5 °F 30 in WSW 2 mph 2 mph 76 % 0 in
23:02 74.5 °F 63.1 °F 30 in SW 2.3 mph   68 % 0 in
23:07 74.3 °F 63.1 °F 30 in SW 2.3 mph 2.3 mph 68 % 0 in
23:10 71.6 °F 63.7 °F 30 in SW 2 mph 2 mph 76 % 0 in
23:12 74.3 °F 63.1 °F 30 in SW 2.3 mph 2.3 mph 68 % 0 in
23:17 74.3 °F 63.1 °F 30 in SW 2.3 mph 2.3 mph 68 % 0 in
23:20 71.8 °F 63.9 °F 30 in WSW 2 mph 3 mph 76 % 0 in
23:22 73.9 °F 62.8 °F 30 in SW 3.1 mph 3.1 mph 68 % 0 in
23:27 73.9 °F 63.1 °F 30 in SSW 2.3 mph 2.3 mph 69 % 0 in
23:30 71.6 °F 63.7 °F 30 in WSW 2 mph 3 mph 76 % 0 in
23:32 73.9 °F 63.1 °F 30 in SSW 2.4 mph 2.4 mph 69 % 0 in
23:37 73.8 °F 63.3 °F 30 in SW 2.3 mph 2.3 mph 70 % 0 in
23:40 71.6 °F 63.7 °F 30 in WSW 3 mph 6 mph 76 % 0 in
23:42 73.9 °F 63.5 °F 30 in SW 2.3 mph 2.3 mph 70 % 0 in
23:47 73.8 °F 63.3 °F 30 in WSW 2.3 mph 2.3 mph 70 % 0 in
23:50 71.6 °F 63.7 °F 30 in WSW 1 mph 3 mph 76 % 0 in
23:52 73.8 °F 63.3 °F 30 in SW 2.3 mph 2.3 mph 70 % 0 in
23:57 73.8 °F 63.3 °F 30 in SW 3.3 mph 3.3 mph 70 % 0 in
Meteo Sesrovires
Elogis d' Weather Underground - 3.5 mb

Guio original per  Jim McMurry - jmcmurry@mwt.net Adaptat per a la plantilla per  Wim van der Kuil - Leuven-Template.eu

Trobareu la nostra informacio del temps tambe a:

Weather Underground

AWEKAS